Vitsentzos Kornaros — SXNX — position and weather

sailwx.info

Track history (hours):
 
Tides and Currents Weather Stations Pressure Air Temp Water Temp Dewpoint Dewpoint Depression Visibility Wind Speed Wind Dir Waves Ship Positions

Vitsentzos Kornaros

Last reported at 2017-Mar-27 18:20 UTC. Time now 2017-Mar-28 12:05 UTC.
Position N 37°03' E 023°28'.

Length 128 m; draft 4.5 m.

Type: Passenger vessel. MMSI: 239311000.

Date/timePositionNaut miles runAvg speedWind from/ knotsBaromVisibWave heightAir tempDewpointWater temp
2017-Mar-27 18:20N 37°03' E 023°28'2513.8
2017-Mar-27 16:30N 37°27' E 023°38'1313.8
2017-Mar-27 15:33N 37°39' E 023°42'1313.5
2017-Mar-27 14:34N 37°52' E 023°37'5 4.7
2017-Mar-27 13:33N 37°57' E 023°38'0 0.0
2017-Mar-27 12:33N 37°57' E 023°38'0 0.0
2017-Mar-27 11:33N 37°57' E 023°38'0 0.0
2017-Mar-27 10:33N 37°57' E 023°38'0 0.0
2017-Mar-27 09:33N 37°57' E 023°38'0 0.0
2017-Mar-27 08:33N 37°57' E 023°38'0 0.0
2017-Mar-27 07:33N 37°57' E 023°38'0 0.0
2017-Mar-27 06:33N 37°57' E 023°38'0 0.0
2017-Mar-27 05:33N 37°57' E 023°38'0 0.0
2017-Mar-27 04:33N 37°57' E 023°38'4 3.6
2017-Mar-27 03:33N 37°53' E 023°38'1111.1
2017-Mar-27 02:33N 37°43' E 023°43'1312.6
2017-Mar-27 01:33N 37°31' E 023°41'1413.7
2017-Mar-27 00:33N 37°18' E 023°35'1413.6
2017-Mar-26 23:32N 37°05' E 023°29'6 0.1
2017-Mar-24 20:21N 36°59' E 023°26'1113.3
2017-Mar-24 19:33N 37°09' E 023°31'1413.6
2017-Mar-24 18:33N 37°22' E 023°37'1413.8
2017-Mar-24 17:33N 37°35' E 023°41'1413.6
2017-Mar-24 16:33N 37°49' E 023°37'8 7.9
2017-Mar-24 15:34N 37°56' E 023°37'0 0.0
2017-Mar-24 14:33N 37°56' E 023°37'0 0.0
2017-Mar-24 13:33N 37°56' E 023°37'0 0.0
2017-Mar-24 12:33N 37°56' E 023°37'0 0.0
2017-Mar-24 11:33N 37°56' E 023°37'0 0.0
2017-Mar-24 10:33N 37°56' E 023°37'0 0.0
2017-Mar-24 09:33N 37°56' E 023°37'0 0.0
2017-Mar-24 08:33N 37°56' E 023°37'0 0.0
2017-Mar-24 07:33N 37°56' E 023°37'0 0.0
2017-Mar-24 06:33N 37°56' E 023°37'0 0.0
2017-Mar-24 05:33N 37°56' E 023°37'0 0.0
2017-Mar-24 04:33N 37°56' E 023°37'1211.6
2017-Mar-24 03:33N 37°46' E 023°43'1312.5
2017-Mar-24 02:33N 37°33' E 023°41'1413.6
2017-Mar-24 01:33N 37°20' E 023°36'1413.8
2017-Mar-24 00:33N 37°07' E 023°29'1413.9
2017-Mar-23 23:34N 36°54' E 023°24'  
2017-Mar-20 16:27N 37°40' E 023°42'1213.9
2017-Mar-20 15:33N 37°51' E 023°37'5 5.4
2017-Mar-20 14:33N 37°56' E 023°37'0 0.0
2017-Mar-20 13:33N 37°56' E 023°37'0 0.0
2017-Mar-20 12:34N 37°56' E 023°37'0 0.0
2017-Mar-20 11:33N 37°56' E 023°37'0 0.0
2017-Mar-20 10:30N 37°56' E 023°37'0 0.0
2017-Mar-20 09:34N 37°56' E 023°37'0 0.0
2017-Mar-20 08:33N 37°56' E 023°37'0 0.0
2017-Mar-20 07:33N 37°56' E 023°37'0 0.0
2017-Mar-20 06:33N 37°56' E 023°37'0 0.0
2017-Mar-20 05:33N 37°56' E 023°37'2 1.9
2017-Mar-20 04:34N 37°55' E 023°37'1413.5
2017-Mar-20 03:33N 37°42' E 023°44'1313.3
2017-Mar-20 02:33N 37°29' E 023°41'  
Track history (hours):
 
Tides and Currents Weather Stations Pressure Air Temp Water Temp Dewpoint Dewpoint Depression Visibility Wind Speed Wind Dir Waves Ship Positions

Vitsentzos Kornaros

Last reported at 2017-Mar-27 18:20 UTC. Time now 2017-Mar-28 12:05 UTC.
Position N 37°03' E 023°28'.

Length 128 m; draft 4.5 m.

Type: Passenger vessel. MMSI: 239311000.

Date/timePositionNaut miles runAvg speedWind from/ knotsBaromVisibWave heightAir tempDewpointWater temp
2017-Mar-27 18:20N 37°03' E 023°28'2513.8
2017-Mar-27 16:30N 37°27' E 023°38'1313.8
2017-Mar-27 15:33N 37°39' E 023°42'1313.5
2017-Mar-27 14:34N 37°52' E 023°37'5 4.7
2017-Mar-27 13:33N 37°57' E 023°38'0 0.0
2017-Mar-27 12:33N 37°57' E 023°38'0 0.0
2017-Mar-27 11:33N 37°57' E 023°38'0 0.0
2017-Mar-27 10:33N 37°57' E 023°38'0 0.0
2017-Mar-27 09:33N 37°57' E 023°38'0 0.0
2017-Mar-27 08:33N 37°57' E 023°38'0 0.0
2017-Mar-27 07:33N 37°57' E 023°38'0 0.0
2017-Mar-27 06:33N 37°57' E 023°38'0 0.0
2017-Mar-27 05:33N 37°57' E 023°38'0 0.0
2017-Mar-27 04:33N 37°57' E 023°38'4 3.6
2017-Mar-27 03:33N 37°53' E 023°38'1111.1
2017-Mar-27 02:33N 37°43' E 023°43'1312.6
2017-Mar-27 01:33N 37°31' E 023°41'1413.7
2017-Mar-27 00:33N 37°18' E 023°35'1413.6
2017-Mar-26 23:32N 37°05' E 023°29'6 0.1
2017-Mar-24 20:21N 36°59' E 023°26'1113.3
2017-Mar-24 19:33N 37°09' E 023°31'1413.6
2017-Mar-24 18:33N 37°22' E 023°37'1413.8
2017-Mar-24 17:33N 37°35' E 023°41'1413.6
2017-Mar-24 16:33N 37°49' E 023°37'8 7.9
2017-Mar-24 15:34N 37°56' E 023°37'0 0.0
2017-Mar-24 14:33N 37°56' E 023°37'0 0.0
2017-Mar-24 13:33N 37°56' E 023°37'0 0.0
2017-Mar-24 12:33N 37°56' E 023°37'0 0.0
2017-Mar-24 11:33N 37°56' E 023°37'0 0.0
2017-Mar-24 10:33N 37°56' E 023°37'0 0.0
2017-Mar-24 09:33N 37°56' E 023°37'0 0.0
2017-Mar-24 08:33N 37°56' E 023°37'0 0.0
2017-Mar-24 07:33N 37°56' E 023°37'0 0.0
2017-Mar-24 06:33N 37°56' E 023°37'0 0.0
2017-Mar-24 05:33N 37°56' E 023°37'0 0.0
2017-Mar-24 04:33N 37°56' E 023°37'1211.6
2017-Mar-24 03:33N 37°46' E 023°43'1312.5
2017-Mar-24 02:33N 37°33' E 023°41'1413.6
2017-Mar-24 01:33N 37°20' E 023°36'1413.8
2017-Mar-24 00:33N 37°07' E 023°29'1413.9
2017-Mar-23 23:34N 36°54' E 023°24'  
2017-Mar-20 16:27N 37°40' E 023°42'1213.9
2017-Mar-20 15:33N 37°51' E 023°37'5 5.4
2017-Mar-20 14:33N 37°56' E 023°37'0 0.0
2017-Mar-20 13:33N 37°56' E 023°37'0 0.0
2017-Mar-20 12:34N 37°56' E 023°37'0 0.0
2017-Mar-20 11:33N 37°56' E 023°37'0 0.0
2017-Mar-20 10:30N 37°56' E 023°37'0 0.0
2017-Mar-20 09:34N 37°56' E 023°37'0 0.0
2017-Mar-20 08:33N 37°56' E 023°37'0 0.0
2017-Mar-20 07:33N 37°56' E 023°37'0 0.0
2017-Mar-20 06:33N 37°56' E 023°37'0 0.0
2017-Mar-20 05:33N 37°56' E 023°37'2 1.9
2017-Mar-20 04:34N 37°55' E 023°37'1413.5
2017-Mar-20 03:33N 37°42' E 023°44'1313.3
2017-Mar-20 02:33N 37°29' E 023°41'  

Dump ship's entire track history